Terminal Aerodrome Forecast
Issued by NWS

Home | Current Version | Previous Version | Text Only | Print | Product List | Glossary On
Versions: 1 2 3 4 5 6 7 8 9 10 11 12 13 14 15 16
000
FTUS45 KREV 302320
TAFRNO
TAF
KRNO 302320Z 0100/0124 10011KT P6SM BKN060
     FM010300 VRB04KT P6SM FEW070
     FM011900 11010G18KT P6SM SCT040=

USA.gov is the U.S. government's official web portal to all federal, state and local government web resources and services.